Time;durP1;ratioP1;P1;durP2;ratioP2;P2;SDS_P1;SDS_P2;PMS_P1;PMS_P2;Temp;Humidity;BMP_temperature;BMP_pressure;BME280_temperature;BME280_humidity;BME280_pressure;Samples;Min_cycle;Max_cycle;Signal;HPM_P1;HPM_P2
2022/06/11 00:01:50;;;;;;;5.05;3.65;;;;;;;19.44;70.45;100834.63;4997302;28;102268;-52
2022/06/11 00:04:22;;;;;;;4.00;3.60;;;;;;;19.45;70.63;100839.00;4992405;28;102263;-52
2022/06/11 00:06:51;;;;;;;4.72;3.70;;;;;;;19.42;70.61;100843.19;4982746;28;102612;-52
2022/06/11 00:09:21;;;;;;;4.55;4.13;;;;;;;19.43;70.84;100836.53;4976751;28;103905;-52
2022/06/11 00:11:51;;;;;;;6.00;4.28;;;;;;;19.44;70.29;100840.94;4977568;28;103175;-52
2022/06/11 00:14:25;;;;;;;4.63;4.15;;;;;;;19.43;70.42;100844.81;4993613;28;102193;-52
2022/06/11 00:16:52;;;;;;;4.22;3.83;;;;;;;19.43;70.47;100850.34;4990291;28;102192;-52
2022/06/11 00:19:21;;;;;;;4.68;4.20;;;;;;;19.44;70.23;100846.47;4990450;28;104178;-52
2022/06/11 00:21:51;;;;;;;4.45;4.05;;;;;;;19.44;70.65;100845.66;4997108;28;102180;-52
2022/06/11 00:24:19;;;;;;;4.05;3.75;;;;;;;19.45;70.43;100842.56;4996012;28;102170;-52
2022/06/11 00:26:50;;;;;;;4.85;3.95;;;;;;;19.44;70.65;100851.97;4996418;28;102402;-52
2022/06/11 00:29:20;;;;;;;4.17;3.87;;;;;;;19.44;70.49;100851.19;4995014;28;103938;-53
2022/06/11 00:31:47;;;;;;;3.95;3.65;;;;;;;19.44;70.30;100846.47;4997017;28;102132;-52
2022/06/11 00:34:14;;;;;;;4.38;4.07;;;;;;;19.44;70.56;100854.75;4996876;28;102309;-52
2022/06/11 00:36:43;;;;;;;4.50;4.10;;;;;;;19.43;70.45;100850.34;4995637;28;102419;-52
2022/06/11 00:39:14;;;;;;;4.80;4.22;;;;;;;19.43;70.17;100849.53;4992150;28;104165;-52
2022/06/11 00:41:44;;;;;;;4.45;4.07;;;;;;;19.43;70.41;100849.53;4994981;28;102520;-52
2022/06/11 00:44:11;;;;;;;4.78;4.38;;;;;;;19.43;70.52;100858.63;4987854;28;102091;-52
2022/06/11 00:46:55;;;;;;;4.78;3.60;;;;;;;19.42;70.39;100851.47;4997071;28;102608;-52
2022/06/11 00:49:29;;;;;;;4.20;3.90;;;;;;;19.43;70.26;100850.34;4985920;28;108245;-52
2022/06/11 00:52:05;;;;;;;4.00;3.70;;;;;;;19.43;70.11;100855.06;4987142;28;102336;-52
2022/06/11 00:54:34;;;;;;;4.22;3.90;;;;;;;19.43;70.36;100861.38;4976121;28;102002;-52
2022/06/11 00:57:01;;;;;;;;;;;;;;;19.42;70.58;100853.44;4978204;28;101976;-52
2022/06/11 00:59:32;;;;;;;4.28;3.95;;;;;;;19.43;70.07;100853.09;4986122;28;104095;-52
2022/06/11 01:01:59;;;;;;;4.40;3.80;;;;;;;19.42;70.38;100857.00;4996823;28;101924;-52
2022/06/11 01:04:38;;;;;;;4.03;3.72;;;;;;;19.41;70.32;100847.13;4996319;28;102128;-52
2022/06/11 01:07:18;;;;;;;4.00;3.70;;;;;;;19.42;70.33;100853.44;4997322;28;102090;-52
2022/06/11 01:09:53;;;;;;;4.53;4.00;;;;;;;19.41;70.21;100858.16;4994296;28;103951;-52
2022/06/11 01:12:28;;;;;;;4.45;4.05;;;;;;;19.41;70.33;100858.16;4996957;28;102409;-52
2022/06/11 01:15:07;;;;;;;4.13;3.83;;;;;;;19.40;70.63;100856.53;4995532;28;102154;-52
2022/06/11 01:17:43;;;;;;;4.13;3.72;;;;;;;19.40;70.55;100862.06;4996783;28;102293;-52
2022/06/11 01:20:21;;;;;;;4.35;4.05;;;;;;;19.41;70.33;100866.44;4993368;28;104111;-52
2022/06/11 01:23:26;;;;;;;3.80;3.47;;;;;;;19.41;70.33;100869.19;4995879;28;102454;-52
2022/06/11 01:26:04;;;;;;;4.00;3.70;;;;;;;19.40;70.11;100864.81;4993737;28;102326;-52
2022/06/11 01:28:48;;;;;;;4.60;4.20;;;;;;;19.41;70.02;100858.16;4985130;28;105098;-52
2022/06/11 01:31:22;;;;;;;4.82;4.07;;;;;;;19.40;70.21;100867.56;4980329;28;104221;-52
2022/06/11 01:34:04;;;;;;;3.92;3.63;;;;;;;19.41;69.95;100869.19;4976582;28;101965;-52
2022/06/11 01:36:35;;;;;;;3.80;3.50;;;;;;;19.42;69.93;100867.25;4988176;28;102328;-52
2022/06/11 01:39:07;;;;;;;6.45;4.10;;;;;;;19.41;69.88;100869.19;4996028;28;102378;-52
2022/06/11 01:41:41;;;;;;;4.35;4.05;;;;;;;19.41;70.16;100862.88;4995496;28;103832;-52
2022/06/11 01:44:12;;;;;;;4.15;3.85;;;;;;;19.40;70.02;100867.56;4996360;28;102653;-52
2022/06/11 01:46:43;;;;;;;4.15;3.85;;;;;;;19.41;70.28;100868.38;4994989;28;102304;-52
2022/06/11 01:49:39;;;;;;;3.95;3.53;;;;;;;19.40;70.29;100870.34;4989032;28;102652;-52
2022/06/11 01:52:19;;;;;;;4.00;3.65;;;;;;;19.40;70.20;100866.75;4989969;28;108637;-52
2022/06/11 01:54:54;;;;;;;4.13;3.83;;;;;;;19.40;70.31;100866.75;4985502;28;102027;-52
2022/06/11 01:57:39;;;;;;;4.30;4.00;;;;;;;19.40;70.28;100867.56;4995415;28;102236;-52
2022/06/11 02:00:14;;;;;;;4.05;3.75;;;;;;;19.40;70.29;100867.56;4991946;28;102039;-52
2022/06/11 02:03:03;;;;;;;4.32;3.92;;;;;;;19.40;69.93;100866.75;4988203;28;104088;-52
2022/06/11 02:05:40;;;;;;;4.22;3.90;;;;;;;19.39;70.19;100871.44;4995429;28;102158;-52
2022/06/11 02:08:18;;;;;;;4.05;3.75;;;;;;;19.39;70.05;100876.97;4985268;28;102434;-52
2022/06/11 02:10:50;;;;;;;4.25;3.85;;;;;;;19.40;70.03;100873.09;4995273;28;102406;-52
2022/06/11 02:13:24;;;;;;;4.30;4.00;;;;;;;19.40;69.94;100878.63;4990582;28;104046;-52
2022/06/11 02:15:55;;;;;;;4.25;3.85;;;;;;;19.40;69.94;100875.84;4982454;28;102554;-52
2022/06/11 02:18:26;;;;;;;4.32;3.97;;;;;;;19.39;70.16;100865.94;4981250;28;101936;-52
2022/06/11 02:20:59;;;;;;;4.20;3.85;;;;;;;19.40;70.12;100877.78;4979243;28;102381;-52
2022/06/11 02:23:32;;;;;;;4.35;3.95;;;;;;;19.40;69.89;100863.97;4982824;28;103924;-52
2022/06/11 02:26:05;;;;;;;4.22;3.92;;;;;;;19.39;69.92;100871.44;4998346;28;101890;-52
2022/06/11 02:28:37;;;;;;;4.28;3.97;;;;;;;19.40;70.12;100872.25;4998773;28;102036;-52
2022/06/11 02:31:07;;;;;;;4.18;3.78;;;;;;;19.39;69.89;100868.69;4998243;28;102075;-52
2022/06/11 02:33:36;;;;;;;3.83;3.53;;;;;;;19.40;70.32;100875.03;4997223;28;104134;-52
2022/06/11 02:36:05;;;;;;;4.57;4.22;;;;;;;19.39;70.16;100876.97;4998082;28;102056;-52
2022/06/11 02:38:33;;;;;;;4.65;4.22;;;;;;;19.40;70.43;100875.03;4998506;28;102397;-52
2022/06/11 02:41:06;;;;;;;4.35;4.05;;;;;;;19.40;70.10;100878.63;4998281;28;102160;-52
2022/06/11 02:43:33;;;;;;;4.40;4.10;;;;;;;19.40;70.52;100878.63;4992199;28;104189;-52
2022/06/11 02:46:40;;;;;;;4.55;4.15;;;;;;;19.40;70.05;100877.78;4999012;28;102230;-52
2022/06/11 02:48:49;;;;;;;4.70;4.30;;;;;;;19.40;70.15;100883.31;4986457;28;102378;-52
2022/06/11 02:51:17;;;;;;;4.78;4.38;;;;;;;19.40;70.19;100883.31;4990370;28;102353;-52
2022/06/11 02:53:43;;;;;;;5.35;4.95;;;;;;;19.39;70.54;100871.44;4983358;28;104084;-52
2022/06/11 02:56:11;;;;;;;4.57;4.18;;;;;;;19.40;70.08;100875.84;4998405;28;102042;-52
2022/06/11 02:58:37;;;;;;;4.72;4.40;;;;;;;19.39;70.53;100882.50;4988905;28;102319;-52
2022/06/11 03:01:05;;;;;;;5.00;4.60;;;;;;;19.40;70.30;100878.63;4987696;28;102546;-52
2022/06/11 03:03:32;;;;;;;4.32;3.95;;;;;;;19.40;70.49;100884.13;4996584;28;104113;-52
2022/06/11 03:06:00;;;;;;;4.10;3.80;;;;;;;19.41;70.28;100888.50;4998068;28;102235;-52
2022/06/11 03:08:26;;;;;;;4.20;3.80;;;;;;;19.41;70.26;100891.28;4997027;28;102451;-52
2022/06/11 03:10:56;;;;;;;4.03;3.72;;;;;;;19.42;70.01;100887.38;4998004;28;102520;-52
2022/06/11 03:13:24;;;;;;;4.47;3.78;;;;;;;19.43;69.46;100883.47;4996585;28;103861;-52
2022/06/11 03:15:51;;;;;;;4.07;3.77;;;;;;;19.43;69.74;100877.94;4997380;28;102086;-52
2022/06/11 03:18:18;;;;;;;4.60;4.20;;;;;;;19.43;69.63;100880.69;4996901;28;102348;-52
2022/06/11 03:20:46;;;;;;;4.00;3.70;;;;;;;19.45;69.67;100883.94;4998570;28;102187;-52
2022/06/11 03:23:14;;;;;;;3.40;3.20;;;;;;;19.45;69.79;100892.22;4990601;28;103918;-52
2022/06/11 03:25:40;;;;;;;4.22;3.83;;;;;;;19.48;69.71;100889.97;4996723;28;102580;-53
2022/06/11 03:28:09;;;;;;;3.95;3.65;;;;;;;19.45;69.96;100886.72;4993834;28;101996;-52
2022/06/11 03:30:35;;;;;;;4.30;4.00;;;;;;;19.47;70.05;100891.91;4993919;28;102502;-52
2022/06/11 03:33:02;;;;;;;4.00;3.70;;;;;;;19.47;69.94;100891.91;4992320;28;103891;-52
2022/06/11 03:35:29;;;;;;;3.70;3.50;;;;;;;19.49;70.01;100902.63;4997627;28;102348;-52
2022/06/11 03:37:56;;;;;;;3.97;3.67;;;;;;;19.49;69.90;100908.16;4997423;28;102175;-52
2022/06/11 03:40:24;;;;;;;3.97;3.40;;;;;;;19.49;70.06;100905.38;4998357;28;102309;-52
2022/06/11 03:42:50;;;;;;;3.63;3.33;;;;;;;19.50;70.02;100910.56;4996653;28;104179;-52
2022/06/11 03:45:18;;;;;;;3.67;3.38;;;;;;;19.51;69.91;100905.84;4997402;28;101866;-52
2022/06/11 03:47:48;;;;;;;3.45;3.22;;;;;;;19.49;69.88;100908.94;4997346;28;102054;-52
2022/06/11 03:50:19;;;;;;;3.70;3.40;;;;;;;19.50;69.95;100907.00;4998187;28;102196;-52
2022/06/11 03:52:46;;;;;;;3.50;3.25;;;;;;;19.49;69.67;100899.88;4995337;28;104049;-52
2022/06/11 03:55:13;;;;;;;3.67;3.45;;;;;;;19.49;70.01;100902.63;4984398;28;102799;-52
2022/06/11 03:57:41;;;;;;;3.38;3.17;;;;;;;19.49;70.02;100903.44;4993562;28;102080;-52
2022/06/11 04:00:11;;;;;;;3.73;3.43;;;;;;;19.49;69.93;100908.16;4996010;28;102519;-52
2022/06/11 04:02:37;;;;;;;3.47;3.28;;;;;;;19.50;70.11;100909.75;4994579;28;107987;-52
2022/06/11 04:05:06;;;;;;;3.67;3.40;;;;;;;19.50;69.95;100916.09;4984974;28;102467;-52
2022/06/11 04:07:34;;;;;;;3.17;2.92;;;;;;;19.51;69.95;100916.91;4996821;28;102304;-52
2022/06/11 04:10:03;;;;;;;3.35;3.15;;;;;;;19.53;70.01;100914.63;4997731;28;102147;-52
2022/06/11 04:12:30;;;;;;;3.90;3.50;;;;;;;19.52;70.26;100902.78;4995307;28;103718;-52
2022/06/11 04:14:58;;;;;;;3.45;3.15;;;;;;;19.53;70.15;100906.34;4991991;28;102198;-53
2022/06/11 04:17:28;;;;;;;3.70;3.43;;;;;;;19.53;70.11;100898.88;4985309;28;102475;-52
2022/06/11 04:19:56;;;;;;;3.50;3.20;;;;;;;19.54;70.27;100894.16;4996867;28;102551;-51
2022/06/11 04:22:24;;;;;;;3.15;2.95;;;;;;;19.55;70.50;100901.31;4993100;28;103889;-52
2022/06/11 04:24:51;;;;;;;3.40;3.20;;;;;;;19.54;70.12;100888.63;4995448;28;102158;-52
2022/06/11 04:27:20;;;;;;;3.53;3.20;;;;;;;19.56;70.30;100891.91;4995989;28;102451;-52
2022/06/11 04:29:50;;;;;;;3.72;3.42;;;;;;;19.56;70.18;100900.19;4997766;28;102017;-51
2022/06/11 04:32:19;;;;;;;3.58;3.33;;;;;;;19.57;70.27;100893.50;4993361;28;104008;-52
2022/06/11 04:34:47;;;;;;;3.47;3.17;;;;;;;19.57;70.10;100897.06;4993392;28;102427;-52
2022/06/11 04:37:17;;;;;;;3.55;3.25;;;;;;;19.57;69.92;100894.31;4993971;28;102507;-52
2022/06/11 04:39:48;;;;;;;3.78;3.47;;;;;;;19.59;70.14;100907.81;4996188;28;102147;-52
2022/06/11 04:42:15;;;;;;;3.65;3.35;;;;;;;19.60;70.30;100910.22;4994500;28;103944;-52
2022/06/11 04:44:43;;;;;;;3.63;3.33;;;;;;;19.60;70.27;100906.66;4996513;28;102421;-52
2022/06/11 04:47:12;;;;;;;3.47;3.17;;;;;;;19.61;70.13;100909.09;4996627;28;102242;-52
2022/06/11 04:49:41;;;;;;;3.45;3.25;;;;;;;19.61;70.15;100905.50;4994758;28;102470;-52
2022/06/11 04:52:09;;;;;;;3.50;3.30;;;;;;;19.62;69.96;100907.16;4984658;28;104493;-52
2022/06/11 04:54:36;;;;;;;3.70;3.40;;;;;;;19.62;70.25;100909.91;4989069;28;102042;-52
2022/06/11 04:57:04;;;;;;;3.42;3.22;;;;;;;19.61;70.38;100916.56;4994893;28;102190;-52
2022/06/11 04:59:32;;;;;;;3.88;3.58;;;;;;;19.62;70.37;100923.72;4997417;28;102117;-52
2022/06/11 05:01:59;;;;;;;3.70;3.40;;;;;;;19.61;70.18;100922.09;4992754;28;104266;-52
2022/06/11 05:04:26;;;;;;;3.65;3.35;;;;;;;19.60;70.27;100921.28;4996777;28;102265;-52
2022/06/11 05:06:54;;;;;;;4.30;3.72;;;;;;;19.61;70.29;100922.09;4994221;28;101933;-52
2022/06/11 05:09:23;;;;;;;4.00;3.70;;;;;;;19.62;70.50;100920.97;4991705;28;102588;-52
2022/06/11 05:11:52;;;;;;;4.03;3.72;;;;;;;19.62;70.33;100919.03;4992849;28;104105;-52
2022/06/11 05:14:20;;;;;;;5.03;3.95;;;;;;;19.65;70.01;100926.66;4989265;28;102802;-52
2022/06/11 05:16:48;;;;;;;3.80;3.50;;;;;;;19.68;70.27;100919.66;4990030;28;102535;-51
2022/06/11 05:19:20;;;;;;;4.22;3.83;;;;;;;19.68;70.32;100923.22;4987564;28;102525;-52
2022/06/11 05:21:48;;;;;;;3.78;3.47;;;;;;;19.73;70.20;100929.75;4992434;28;103870;-52
2022/06/11 05:24:16;;;;;;;3.85;3.55;;;;;;;19.75;70.36;100933.78;4994394;28;102174;-52
2022/06/11 05:26:48;;;;;;;4.43;4.03;;;;;;;19.76;70.33;100935.41;4987020;28;102141;-52
2022/06/11 05:29:21;;;;;;;3.95;3.65;;;;;;;19.80;70.13;100930.88;4984902;28;103870;-51
2022/06/11 05:31:47;;;;;;;4.35;3.80;;;;;;;19.83;70.00;100935.69;4992757;28;104125;-51
2022/06/11 05:34:14;;;;;;;4.63;3.88;;;;;;;19.86;69.84;100937.81;4996180;28;102028;-52
2022/06/11 05:36:41;;;;;;;4.30;3.83;;;;;;;19.88;70.11;100945.78;4993787;28;103999;-52
2022/06/11 05:39:07;;;;;;;3.67;3.40;;;;;;;19.89;69.92;100933.59;4982336;28;102713;-52
2022/06/11 05:41:35;;;;;;;4.45;4.03;;;;;;;19.90;69.81;100941.53;4994930;28;103712;-51
2022/06/11 05:44:02;;;;;;;4.53;4.13;;;;;;;19.91;69.57;100943.19;4994133;28;102343;-52
2022/06/11 05:46:29;;;;;;;4.15;3.85;;;;;;;19.91;69.89;100943.19;4999035;28;102695;-57
2022/06/11 05:49:00;;;;;;;3.70;3.40;;;;;;;19.89;69.76;100937.16;5015311;28;102672;-52
2022/06/11 05:51:32;;;;;;;3.80;3.50;;;;;;;19.89;69.84;100934.41;4991945;28;104338;-52
2022/06/11 05:54:02;;;;;;;4.30;4.00;;;;;;;19.89;69.99;100936.34;4999233;28;102169;-52
2022/06/11 05:56:30;;;;;;;4.25;3.70;;;;;;;19.90;69.78;100933.25;4992538;28;102693;-51
2022/06/11 05:59:01;;;;;;;4.90;4.45;;;;;;;19.96;69.73;100939.44;4999952;28;102179;-52
2022/06/11 06:01:32;;;;;;;4.00;3.67;;;;;;;19.97;69.47;100946.56;4997205;28;104073;-51
2022/06/11 06:03:59;;;;;;;4.97;3.53;;;;;;;19.98;69.69;100947.38;4994736;28;102457;-52
2022/06/11 06:06:27;;;;;;;3.70;3.40;;;;;;;19.97;69.56;100938.28;4991352;28;102199;-53
2022/06/11 06:08:53;;;;;;;3.50;3.20;;;;;;;20.00;69.62;100942.34;4990748;28;102270;-52
2022/06/11 06:11:25;;;;;;;3.70;3.40;;;;;;;20.02;69.65;100942.84;4992204;28;103913;-52
2022/06/11 06:13:52;;;;;;;;;;;;;;;20.06;69.44;100938.25;4989236;28;102306;-52
2022/06/11 06:16:22;;;;;;;4.18;3.50;;;;;;;20.07;69.54;100942.63;4991253;28;102303;-52
2022/06/11 06:18:49;;;;;;;3.55;3.25;;;;;;;20.09;69.39;100943.13;4995240;28;103843;-52
2022/06/11 06:21:19;;;;;;;3.65;3.22;;;;;;;20.10;69.48;100947.50;4992654;28;103917;-53
2022/06/11 06:23:46;;;;;;;3.20;2.97;;;;;;;20.12;69.55;100947.97;4994382;28;102162;-52
2022/06/11 06:26:13;;;;;;;3.60;3.30;;;;;;;20.10;69.39;100950.28;4997759;28;102198;-52
2022/06/11 06:28:41;;;;;;;4.03;3.72;;;;;;;20.08;69.51;100952.53;4999800;28;102105;-52
2022/06/11 06:31:10;;;;;;;4.47;4.05;;;;;;;20.06;69.59;100949.31;4997139;28;103918;-52
2022/06/11 06:33:38;;;;;;;4.40;3.67;;;;;;;20.04;69.53;100957.91;4996763;28;102135;-53
2022/06/11 06:36:07;;;;;;;3.95;3.65;;;;;;;20.06;69.64;100957.59;4996061;28;102578;-52
2022/06/11 06:38:35;;;;;;;3.42;3.13;;;;;;;20.08;69.45;100945.06;5000315;28;102372;-52
2022/06/11 06:41:03;;;;;;;4.00;3.70;;;;;;;20.11;69.40;100957.41;4997174;28;103912;-52
2022/06/11 06:43:30;;;;;;;4.03;3.73;;;;;;;20.10;69.51;100950.28;4995659;28;102508;-52
2022/06/11 06:45:57;;;;;;;3.50;3.17;;;;;;;20.10;69.39;100958.56;4997241;28;102425;-52
2022/06/11 06:48:24;;;;;;;5.60;3.70;;;;;;;20.09;69.23;100948.66;4994977;28;102567;-52
2022/06/11 06:50:53;;;;;;;6.65;3.63;;;;;;;20.06;69.50;100961.19;4987279;28;103945;-52
2022/06/11 06:53:20;;;;;;;3.93;3.50;;;;;;;20.05;69.30;100959.56;4986780;28;102534;-53
2022/06/11 06:55:47;;;;;;;4.28;3.72;;;;;;;20.02;69.62;100953.88;4986372;28;102289;-53
2022/06/11 06:58:15;;;;;;;3.80;3.50;;;;;;;19.98;69.73;100942.69;4999477;28;102523;-52
2022/06/11 07:00:42;;;;;;;3.75;3.45;;;;;;;19.99;69.63;100949.00;4997598;28;104048;-52
2022/06/11 07:03:11;;;;;;;4.38;4.07;;;;;;;20.00;69.54;100953.38;4998686;28;101952;-52
2022/06/11 07:05:38;;;;;;;4.22;3.83;;;;;;;20.05;69.45;100953.19;4997103;28;102107;-53
2022/06/11 07:08:07;;;;;;;3.53;3.22;;;;;;;20.04;69.50;100951.59;4999691;28;102097;-52
2022/06/11 07:10:34;;;;;;;3.53;3.25;;;;;;;20.08;69.42;100969.13;4997327;28;103963;-52
2022/06/11 07:13:01;;;;;;;3.83;3.25;;;;;;;20.11;69.30;100962.94;4997028;28;102239;-52
2022/06/11 07:15:29;;;;;;;3.63;3.33;;;;;;;20.12;69.40;100970.09;4997592;28;102573;-55
2022/06/11 07:18:03;;;;;;;3.80;3.28;;;;;;;20.13;69.34;100971.72;4997807;28;102613;-52
2022/06/11 07:20:34;;;;;;;3.95;3.13;;;;;;;20.14;69.17;100974.16;4996329;28;103906;-53
2022/06/11 07:23:06;;;;;;;3.88;3.40;;;;;;;20.16;69.23;100976.59;4995901;28;102269;-53
2022/06/11 07:25:34;;;;;;;3.47;3.28;;;;;;;20.16;69.22;100969.13;4995467;28;102390;-53
2022/06/11 07:28:06;;;;;;;3.53;3.20;;;;;;;20.17;69.20;100969.91;4993127;28;102192;-53
2022/06/11 07:30:37;;;;;;;3.25;2.95;;;;;;;20.19;69.26;100959.34;4977557;28;104242;-53
2022/06/11 07:33:07;;;;;;;4.00;3.20;;;;;;;20.17;68.88;100967.16;4993852;28;102421;-53
2022/06/11 07:35:35;;;;;;;4.20;3.55;;;;;;;20.19;68.99;100959.34;4995356;28;102495;-52
2022/06/11 07:38:03;;;;;;;5.07;2.97;;;;;;;20.24;69.19;100966.66;4994094;28;102656;-53
2022/06/11 07:40:30;;;;;;;3.45;3.10;;;;;;;20.26;69.30;100961.59;4995719;28;104084;-52
2022/06/11 07:42:59;;;;;;;3.55;3.00;;;;;;;20.26;69.30;100959.63;4992445;28;102336;-52
2022/06/11 07:45:25;;;;;;;4.07;2.95;;;;;;;20.25;69.21;100952.50;4985081;28;102393;-53
2022/06/11 07:47:55;;;;;;;3.88;3.15;;;;;;;20.25;69.13;100952.50;4977292;28;102322;-52
2022/06/11 07:50:27;;;;;;;3.22;2.85;;;;;;;20.24;69.07;100953.63;4975812;28;104083;-52
2022/06/11 07:52:55;;;;;;;3.20;3.00;;;;;;;20.25;69.06;100952.50;4983626;28;102232;-52
2022/06/11 07:55:22;;;;;;;3.42;3.13;;;;;;;20.22;69.14;100953.16;4996967;28;102010;-52
2022/06/11 07:57:49;;;;;;;3.13;2.83;;;;;;;20.24;69.16;100950.88;4998659;28;102326;-52
2022/06/11 08:00:21;;;;;;;4.13;3.03;;;;;;;20.26;69.15;100956.06;4996849;28;103915;-52
2022/06/11 08:02:47;;;;;;;3.80;3.30;;;;;;;20.23;69.09;100957.56;4996857;28;102151;-52
2022/06/11 08:05:15;;;;;;;3.72;3.40;;;;;;;20.23;69.02;100960.31;4991667;28;102390;-52
2022/06/11 08:07:41;;;;;;;3.67;3.45;;;;;;;20.21;69.12;100957.06;4996727;28;102626;-52
2022/06/11 08:10:09;;;;;;;3.97;3.67;;;;;;;20.20;69.16;100960.16;4996400;28;103865;-52
2022/06/11 08:12:35;;;;;;;3.13;2.92;;;;;;;20.17;69.48;100956.09;4997047;28;102919;-52
2022/06/11 08:15:03;;;;;;;3.90;3.50;;;;;;;20.16;69.10;100955.28;4987537;28;102430;-52
2022/06/11 08:17:33;;;;;;;3.70;3.22;;;;;;;20.20;69.29;100966.50;4993555;28;102421;-52
2022/06/11 08:20:01;;;;;;;3.65;3.33;;;;;;;20.17;69.31;100967.97;4984246;28;104122;-52
2022/06/11 08:22:29;;;;;;;3.78;3.47;;;;;;;20.20;69.08;100971.22;4983551;28;102424;-52
2022/06/11 08:24:55;;;;;;;4.10;3.45;;;;;;;20.21;69.26;100962.59;4984491;28;102138;-52
2022/06/11 08:27:22;;;;;;;3.38;2.88;;;;;;;20.24;69.37;100973.00;4984211;28;102699;-52
2022/06/11 08:29:49;;;;;;;4.47;3.50;;;;;;;20.24;69.13;100973.00;4980919;28;103938;-53
2022/06/11 08:32:16;;;;;;;3.42;3.22;;;;;;;20.27;69.44;100969.56;4981201;28;104932;-52
2022/06/11 08:34:47;;;;;;;3.60;3.33;;;;;;;20.25;69.16;100966.31;4984144;28;102637;-53
2022/06/11 08:37:14;;;;;;;3.88;2.95;;;;;;;20.22;69.20;100969.72;4983509;28;102450;-52
2022/06/11 08:39:42;;;;;;;3.92;3.45;;;;;;;20.24;68.89;100973.00;4989897;28;104084;-53
2022/06/11 08:42:33;;;;;;;3.50;3.05;;;;;;;20.27;69.28;100966.81;4983543;28;102471;-53
2022/06/11 08:45:05;;;;;;;3.80;3.53;;;;;;;20.28;69.18;100968.41;4984824;28;103053;-52
2022/06/11 08:47:39;;;;;;;3.60;3.30;;;;;;;20.26;69.15;100964.34;4981381;28;102400;-52
2022/06/11 08:50:10;;;;;;;3.25;2.95;;;;;;;20.26;69.21;100964.34;4981157;28;104177;-52
2022/06/11 08:52:39;;;;;;;4.05;3.63;;;;;;;20.26;69.19;100967.91;4987068;28;104978;-53
2022/06/11 08:55:07;;;;;;;3.95;3.55;;;;;;;20.24;69.27;100967.47;4988619;28;103383;-53
2022/06/11 08:57:42;;;;;;;3.97;3.20;;;;;;;20.26;69.25;100969.88;4994463;28;102832;-52
2022/06/11 09:00:15;;;;;;;3.90;3.60;;;;;;;20.26;69.08;100969.88;4977890;28;104078;-52
2022/06/11 09:03:07;;;;;;;3.60;3.30;;;;;;;20.26;69.28;100969.88;4993158;28;103374;-52
2022/06/11 09:05:51;;;;;;;4.15;2.90;;;;;;;20.26;69.25;100980.94;4982373;28;103291;-53
2022/06/11 09:08:35;;;;;;;3.50;3.20;;;;;;;20.23;69.30;100982.44;4982977;28;102228;-52
2022/06/11 09:11:12;;;;;;;3.13;2.83;;;;;;;20.24;69.10;100973.00;4977937;28;104091;-53
2022/06/11 09:14:18;;;;;;;4.90;3.15;;;;;;;20.23;69.07;100965.84;4984744;28;102427;-53
2022/06/11 09:17:04;;;;;;;3.65;3.35;;;;;;;20.23;69.12;100965.84;4981104;28;102383;-52
2022/06/11 09:19:48;;;;;;;3.67;3.38;;;;;;;20.21;68.98;100962.59;4989577;28;103944;-52
2022/06/11 09:22:33;;;;;;;3.00;2.80;;;;;;;20.22;68.96;100971.69;4992652;28;107841;-53
2022/06/11 09:25:10;;;;;;;3.65;3.35;;;;;;;20.23;69.21;100965.00;4990079;28;104858;-52
2022/06/11 09:27:39;;;;;;;3.70;3.50;;;;;;;20.22;69.12;100966.97;4990635;28;102983;-52
2022/06/11 09:30:10;;;;;;;3.72;3.42;;;;;;;20.23;69.18;100959.47;4988311;28;102327;-52
2022/06/11 09:32:43;;;;;;;3.60;3.30;;;;;;;20.22;69.21;100964.19;4981975;28;103949;-52
2022/06/11 09:35:18;;;;;;;4.43;3.20;;;;;;;20.22;69.10;100966.97;4995269;28;102461;-53
2022/06/11 09:37:59;;;;;;;3.63;3.33;;;;;;;20.19;69.31;100959.34;4993198;28;102461;-53
2022/06/11 09:40:34;;;;;;;3.72;3.42;;;;;;;20.19;69.16;100970.38;4994634;28;102244;-52
2022/06/11 09:43:13;;;;;;;4.20;3.88;;;;;;;20.20;69.06;100960.97;4991513;28;103786;-52
2022/06/11 09:45:51;;;;;;;3.83;3.50;;;;;;;20.20;69.14;100960.16;4983187;28;102390;-52
2022/06/11 09:48:28;;;;;;;3.93;3.50;;;;;;;20.22;69.13;100957.88;4990176;28;102633;-53
2022/06/11 09:51:06;;;;;;;4.32;3.80;;;;;;;20.19;69.23;100951.03;4992769;28;102470;-52
2022/06/11 09:53:46;;;;;;;4.85;3.70;;;;;;;20.21;69.15;100957.06;4991932;28;107940;-53
2022/06/11 09:56:22;;;;;;;3.20;3.00;;;;;;;20.22;69.20;100947.63;4993126;28;102310;-53
2022/06/11 09:58:56;;;;;;;3.63;3.33;;;;;;;20.20;69.09;100949.13;4993347;28;102491;-53
2022/06/11 10:01:31;;;;;;;3.30;3.10;;;;;;;20.17;69.12;100951.38;4984464;28;102112;-53
2022/06/11 10:04:03;;;;;;;3.70;3.40;;;;;;;20.17;69.08;100951.38;4990418;28;104017;-52
2022/06/11 10:06:39;;;;;;;3.45;3.15;;;;;;;20.21;69.11;100942.44;4990572;28;102097;-53
2022/06/11 10:09:17;;;;;;;3.80;3.50;;;;;;;20.19;69.19;100942.75;4990492;28;102085;-52
2022/06/11 10:11:48;;;;;;;3.25;3.05;;;;;;;20.20;69.04;100944.41;4994870;28;102011;-52
2022/06/11 10:14:29;;;;;;;3.30;3.10;;;;;;;20.19;68.86;100942.75;4988258;28;103725;-53
2022/06/11 10:17:02;;;;;;;7.68;3.58;;;;;;;20.19;69.08;100942.75;4991846;28;102004;-53
2022/06/11 10:19:36;;;;;;;3.65;3.35;;;;;;;20.17;69.17;100945.84;4988439;28;102963;-52
2022/06/11 10:22:11;;;;;;;3.42;3.22;;;;;;;20.16;69.22;100946.19;4993854;28;101983;-53
2022/06/11 10:24:57;;;;;;;4.00;3.70;;;;;;;20.17;69.16;100940.34;4989167;28;103936;-52
2022/06/11 10:27:27;;;;;;;3.92;3.40;;;;;;;20.16;69.01;100940.69;4993143;28;103094;-53
2022/06/11 10:30:02;;;;;;;3.50;3.30;;;;;;;20.15;68.96;100933.50;4993163;28;102398;-53
2022/06/11 10:32:36;;;;;;;3.83;3.53;;;;;;;20.15;68.94;100936.28;4996212;28;102036;-53
2022/06/11 10:35:16;;;;;;;3.90;3.60;;;;;;;20.17;69.00;100931.25;4992355;28;103930;-52
2022/06/11 10:37:49;;;;;;;3.40;3.17;;;;;;;20.19;69.14;100937.22;4993947;28;102592;-52
2022/06/11 10:40:22;;;;;;;4.07;3.70;;;;;;;20.17;68.99;100929.28;4996805;28;102525;-52
2022/06/11 10:42:58;;;;;;;3.83;3.53;;;;;;;20.16;68.84;100932.38;4993653;28;102474;-52
2022/06/11 10:45:29;;;;;;;3.90;3.60;;;;;;;20.15;69.05;100931.53;4994132;28;103988;-52
2022/06/11 10:47:58;;;;;;;3.70;3.40;;;;;;;20.14;68.87;100926.38;4994596;28;102264;-52
2022/06/11 10:50:30;;;;;;;3.78;3.47;;;;;;;20.14;69.18;100929.13;4993381;28;102389;-52
2022/06/11 10:53:02;;;;;;;4.03;3.72;;;;;;;20.11;69.09;100919.53;4995408;28;102358;-53
2022/06/11 10:55:35;;;;;;;3.97;3.67;;;;;;;20.10;69.14;100922.66;4990528;28;104658;-53
2022/06/11 10:58:13;;;;;;;3.92;3.50;;;;;;;20.11;68.92;100927.03;4998014;28;102338;-53
2022/06/11 11:00:50;;;;;;;3.95;3.65;;;;;;;20.10;68.96;100919.88;4990947;28;102258;-53
2022/06/11 11:03:25;;;;;;;3.88;3.50;;;;;;;20.09;69.23;100926.56;4986701;28;102337;-53
2022/06/11 11:06:01;;;;;;;3.83;3.53;;;;;;;20.08;68.91;100914.66;4995950;28;104077;-53
2022/06/11 11:08:28;;;;;;;3.97;3.67;;;;;;;20.07;69.01;100915.00;4993693;28;102871;-53
2022/06/11 11:10:58;;;;;;;3.90;3.60;;;;;;;20.07;69.15;100906.72;4995709;28;102239;-52
2022/06/11 11:13:32;;;;;;;4.03;3.72;;;;;;;20.06;69.06;100899.59;4983912;28;102855;-53
2022/06/11 11:16:08;;;;;;;3.67;3.17;;;;;;;20.09;69.15;100909.97;5003100;28;109929;-53
2022/06/11 11:18:41;;;;;;;4.47;3.50;;;;;;;20.09;69.36;100899.75;4997306;28;102307;-53
2022/06/11 11:21:17;;;;;;;4.00;3.67;;;;;;;20.12;68.94;100903.78;4997122;28;102240;-53
2022/06/11 11:23:48;;;;;;;4.75;3.78;;;;;;;20.11;68.98;100904.91;4992179;28;103903;-53
2022/06/11 11:26:21;;;;;;;3.80;3.53;;;;;;;20.11;68.97;100900.19;4983314;28;104706;-53
2022/06/11 11:28:55;;;;;;;4.28;3.90;;;;;;;20.12;69.18;100901.00;4995990;28;102154;-52
2022/06/11 11:31:27;;;;;;;3.63;3.33;;;;;;;20.13;68.97;100888.84;4994663;28;102280;-52
2022/06/11 11:34:03;;;;;;;3.53;3.28;;;;;;;20.13;69.03;100891.59;4991933;28;102552;-53
2022/06/11 11:36:32;;;;;;;4.20;3.90;;;;;;;20.10;69.19;100878.44;4996272;28;103704;-53